Time;durP1;ratioP1;P1;durP2;ratioP2;P2;SDS_P1;SDS_P2;PMS_P1;PMS_P2;Temp;Humidity;BMP_temperature;BMP_pressure;BME280_temperature;BME280_humidity;BME280_pressure;Samples;Min_cycle;Max_cycle;Signal;HPM_P1;HPM_P2
2021/10/15 00:02:13;;;;;;;14.77;14.57;;;;;;;;;;4990573;28;20077;-46
2021/10/15 00:04:40;;;;;;;15.98;15.77;;;;;;;;;;4988478;28;20414;-46
2021/10/15 00:07:06;;;;;;;15.32;15.23;;;;;;;;;;4991409;28;20054;-48
2021/10/15 00:09:33;;;;;;;13.98;13.65;;;;;;;;;;4989089;28;20534;-45
2021/10/15 00:12:00;;;;;;;16.83;16.63;;;;;;;;;;4988576;28;20066;-45
2021/10/15 00:14:26;;;;;;;16.25;16.15;;;;;;;;;;4991249;28;20046;-49
2021/10/15 00:16:54;;;;;;;14.73;14.43;;;;;;;;;;4987987;28;20077;-46
2021/10/15 00:19:21;;;;;;;17.33;17.13;;;;;;;;;;4981225;28;20039;-48
2021/10/15 00:21:47;;;;;;;14.15;14.05;;;;;;;;;;4990410;28;20097;-46
2021/10/15 00:24:14;;;;;;;15.38;15.27;;;;;;;;;;4988141;28;20038;-49
2021/10/15 00:26:44;;;;;;;16.55;16.35;;;;;;;;;;4988000;28;20034;-44
2021/10/15 00:29:11;;;;;;;16.42;16.23;;;;;;;;;;4989268;28;20035;-48
2021/10/15 00:31:37;;;;;;;15.73;15.57;;;;;;;;;;4990326;28;20573;-45
2021/10/15 00:34:04;;;;;;;17.02;16.83;;;;;;;;;;4991200;28;20046;-46
2021/10/15 00:36:31;;;;;;;17.55;17.25;;;;;;;;;;4989373;28;20497;-48
2021/10/15 00:38:58;;;;;;;17.33;17.13;;;;;;;;;;4987009;28;20142;-49
2021/10/15 00:41:24;;;;;;;15.48;15.15;;;;;;;;;;4987204;28;20034;-49
2021/10/15 00:44:02;;;;;;;16.75;16.52;;;;;;;;;;4981610;28;20046;-46
2021/10/15 00:46:29;;;;;;;17.02;16.80;;;;;;;;;;4991906;28;20121;-46
2021/10/15 00:48:56;;;;;;;15.65;15.55;;;;;;;;;;4988469;28;20038;-48
2021/10/15 00:51:23;;;;;;;15.20;15.10;;;;;;;;;;4990189;28;20073;-45
2021/10/15 00:53:50;;;;;;;12.23;12.10;;;;;;;;;;4988956;28;20073;-47
2021/10/15 00:56:17;;;;;;;16.30;15.90;;;;;;;;;;4983443;28;20049;-45
2021/10/15 00:58:44;;;;;;;14.65;14.55;;;;;;;;;;4989584;28;20046;-47
2021/10/15 01:01:11;;;;;;;14.65;14.45;;;;;;;;;;4987983;28;20566;-45
2021/10/15 01:03:38;;;;;;;15.73;15.43;;;;;;;;;;4990217;28;20047;-47
2021/10/15 01:06:05;;;;;;;14.77;14.65;;;;;;;;;;4988035;28;20100;-45
2021/10/15 01:08:33;;;;;;;15.23;15.00;;;;;;;;;;4991067;28;20074;-46
2021/10/15 01:11:00;;;;;;;16.30;16.10;;;;;;;;;;4989575;28;20042;-48
2021/10/15 01:13:28;;;;;;;15.15;15.02;;;;;;;;;;4986101;28;20046;-45
2021/10/15 01:16:04;;;;;;;13.95;13.85;;;;;;;;;;4988730;28;20041;-49
2021/10/15 01:18:31;;;;;;;13.05;12.95;;;;;;;;;;4988125;28;20037;-46
2021/10/15 01:20:58;;;;;;;13.30;13.20;;;;;;;;;;4988198;28;20081;-48
2021/10/15 01:23:25;;;;;;;13.95;13.75;;;;;;;;;;4991492;28;20072;-45
2021/10/15 01:25:55;;;;;;;13.00;12.90;;;;;;;;;;4986825;28;20060;-45
2021/10/15 01:28:23;;;;;;;15.48;15.38;;;;;;;;;;4982992;28;20030;-48
2021/10/15 01:30:50;;;;;;;14.07;13.98;;;;;;;;;;4983625;28;20031;-45
2021/10/15 01:33:17;;;;;;;13.13;13.02;;;;;;;;;;4984214;28;20038;-46
2021/10/15 01:35:44;;;;;;;15.35;15.25;;;;;;;;;;4989474;28;20074;-48
2021/10/15 01:38:11;;;;;;;11.68;11.57;;;;;;;;;;4988138;28;20522;-47
2021/10/15 01:40:39;;;;;;;13.57;13.48;;;;;;;;;;4987748;28;20495;-45
2021/10/15 01:43:06;;;;;;;14.80;14.70;;;;;;;;;;4989600;28;20050;-45
2021/10/15 01:45:32;;;;;;;16.83;16.40;;;;;;;;;;4988620;28;20038;-48
2021/10/15 01:48:00;;;;;;;15.48;15.20;;;;;;;;;;4990904;28;20034;-46
2021/10/15 01:50:28;;;;;;;14.77;14.68;;;;;;;;;;4988777;28;20434;-46
2021/10/15 01:52:55;;;;;;;15.90;15.80;;;;;;;;;;4987667;28;20523;-45
2021/10/15 01:55:22;;;;;;;15.23;15.02;;;;;;;;;;4989227;28;20053;-48
2021/10/15 01:57:48;;;;;;;14.57;14.38;;;;;;;;;;4987207;28;20149;-45
2021/10/15 02:00:16;;;;;;;15.73;15.52;;;;;;;;;;4984378;28;20065;-47
2021/10/15 02:02:43;;;;;;;13.98;13.88;;;;;;;;;;4984116;28;20105;-45
2021/10/15 02:05:11;;;;;;;15.20;15.00;;;;;;;;;;4987025;28;20047;-47
2021/10/15 02:07:38;;;;;;;15.93;15.82;;;;;;;;;;4989251;28;20039;-47
2021/10/15 02:10:06;;;;;;;15.98;15.52;;;;;;;;;;5019175;28;20105;-46
2021/10/15 02:12:32;;;;;;;12.80;12.68;;;;;;;;;;4987281;28;20039;-45
2021/10/15 02:14:59;;;;;;;16.20;16.00;;;;;;;;;;4985761;28;20042;-47
2021/10/15 02:17:26;;;;;;;16.23;16.08;;;;;;;;;;4984053;28;20062;-46
2021/10/15 02:19:52;;;;;;;15.95;15.65;;;;;;;;;;4988582;28;20058;-45
2021/10/15 02:22:19;;;;;;;15.73;15.63;;;;;;;;;;4988084;28;20038;-44
2021/10/15 02:24:46;;;;;;;14.55;14.45;;;;;;;;;;4987331;28;20046;-45
2021/10/15 02:27:13;;;;;;;14.23;14.07;;;;;;;;;;4989126;28;20039;-47
2021/10/15 02:29:39;;;;;;;12.32;12.23;;;;;;;;;;4980979;28;20516;-46
2021/10/15 02:32:06;;;;;;;16.08;15.98;;;;;;;;;;4978306;28;20483;-49
2021/10/15 02:34:33;;;;;;;15.32;15.23;;;;;;;;;;4987910;28;20078;-47
2021/10/15 02:37:00;;;;;;;15.38;15.27;;;;;;;;;;4988195;28;20039;-47
2021/10/15 02:39:27;;;;;;;14.70;14.60;;;;;;;;;;4989109;28;20042;-47
2021/10/15 02:41:53;;;;;;;15.75;15.65;;;;;;;;;;4987389;28;20469;-46
2021/10/15 02:44:20;;;;;;;14.93;14.82;;;;;;;;;;4982552;28;20126;-47
2021/10/15 02:46:47;;;;;;;16.65;16.00;;;;;;;;;;4986457;28;20116;-46
2021/10/15 02:49:14;;;;;;;14.50;14.20;;;;;;;;;;4987771;28;20490;-46
2021/10/15 02:51:40;;;;;;;14.90;14.80;;;;;;;;;;4989666;28;20108;-47
2021/10/15 02:54:07;;;;;;;14.85;14.75;;;;;;;;;;4990461;28;20453;-48
2021/10/15 02:56:34;;;;;;;14.75;14.57;;;;;;;;;;4992722;28;20074;-46
2021/10/15 02:59:01;;;;;;;16.08;15.88;;;;;;;;;;4991701;28;20113;-46
2021/10/15 03:01:28;;;;;;;14.63;14.45;;;;;;;;;;4991225;28;20070;-44
2021/10/15 03:03:55;;;;;;;16.00;15.68;;;;;;;;;;4985492;28;20046;-44
2021/10/15 03:06:21;;;;;;;14.25;14.15;;;;;;;;;;4987584;28;20117;-50
2021/10/15 03:08:48;;;;;;;11.30;11.20;;;;;;;;;;4991707;28;20077;-46
2021/10/15 03:11:15;;;;;;;13.35;13.15;;;;;;;;;;4991959;28;20510;-45
2021/10/15 03:13:41;;;;;;;14.85;14.75;;;;;;;;;;4991144;28;20062;-48
2021/10/15 03:16:08;;;;;;;14.02;13.93;;;;;;;;;;4992592;28;20503;-45
2021/10/15 03:18:35;;;;;;;14.75;14.55;;;;;;;;;;4989433;28;20057;-46
2021/10/15 03:21:02;;;;;;;15.32;15.23;;;;;;;;;;4991359;28;20141;-47
2021/10/15 03:23:31;;;;;;;14.90;14.70;;;;;;;;;;4992351;28;20049;-48
2021/10/15 03:25:58;;;;;;;15.52;15.27;;;;;;;;;;4992653;28;20043;-48
2021/10/15 03:28:25;;;;;;;12.75;12.45;;;;;;;;;;4993060;28;20121;-48
2021/10/15 03:30:51;;;;;;;15.13;14.82;;;;;;;;;;4989446;28;20129;-46
2021/10/15 03:33:18;;;;;;;14.18;14.02;;;;;;;;;;4983783;28;20555;-50
2021/10/15 03:35:45;;;;;;;16.27;16.08;;;;;;;;;;4985160;28;20054;-45
2021/10/15 03:38:12;;;;;;;15.77;15.57;;;;;;;;;;4988221;28;20038;-47
2021/10/15 03:40:39;;;;;;;14.75;14.38;;;;;;;;;;4991569;28;20050;-45
2021/10/15 03:43:05;;;;;;;13.63;13.52;;;;;;;;;;4990711;28;20498;-46
2021/10/15 03:45:32;;;;;;;14.10;14.00;;;;;;;;;;4989593;28;20042;-46
2021/10/15 03:47:59;;;;;;;13.60;13.50;;;;;;;;;;4990467;28;20038;-47
2021/10/15 03:50:26;;;;;;;18.55;18.15;;;;;;;;;;4984930;28;20142;-46
2021/10/15 03:52:52;;;;;;;14.43;14.02;;;;;;;;;;4982723;28;20054;-46
2021/10/15 03:55:19;;;;;;;16.13;15.82;;;;;;;;;;4990460;28;20435;-49
2021/10/15 03:57:46;;;;;;;15.73;15.57;;;;;;;;;;4989455;28;20079;-48
2021/10/15 04:00:13;;;;;;;15.13;14.93;;;;;;;;;;4991655;28;20046;-49
2021/10/15 04:02:41;;;;;;;17.30;17.15;;;;;;;;;;4984377;28;20074;-50
2021/10/15 04:05:09;;;;;;;15.32;15.23;;;;;;;;;;4985988;28;20117;-47
2021/10/15 04:07:36;;;;;;;13.73;13.52;;;;;;;;;;4990713;28;20073;-47
2021/10/15 04:10:04;;;;;;;16.65;16.50;;;;;;;;;;4989571;28;20043;-48
2021/10/15 04:12:31;;;;;;;15.75;15.65;;;;;;;;;;4991468;28;20069;-48
2021/10/15 04:14:58;;;;;;;14.88;14.77;;;;;;;;;;4989221;28;20042;-49
2021/10/15 04:17:25;;;;;;;15.07;14.98;;;;;;;;;;4984244;28;20050;-47
2021/10/15 04:19:51;;;;;;;13.93;13.73;;;;;;;;;;4990003;28;20066;-45
2021/10/15 04:22:18;;;;;;;14.98;14.77;;;;;;;;;;4990026;28;20038;-47
2021/10/15 04:24:45;;;;;;;14.95;14.57;;;;;;;;;;4991102;28;20039;-47
2021/10/15 04:27:12;;;;;;;17.00;16.40;;;;;;;;;;4990752;28;20049;-45
2021/10/15 04:29:38;;;;;;;15.02;14.82;;;;;;;;;;4989844;28;20140;-47
2021/10/15 04:32:05;;;;;;;16.02;15.65;;;;;;;;;;4990686;28;20054;-49
2021/10/15 04:34:32;;;;;;;15.57;15.20;;;;;;;;;;4987987;28;20054;-47
2021/10/15 04:36:58;;;;;;;14.93;14.68;;;;;;;;;;4978484;28;20126;-45
2021/10/15 04:39:25;;;;;;;15.13;14.93;;;;;;;;;;4985247;28;20038;-47
2021/10/15 04:41:52;;;;;;;15.13;15.00;;;;;;;;;;4988573;28;20834;-50
2021/10/15 04:44:19;;;;;;;15.18;15.07;;;;;;;;;;4990778;28;20388;-47
2021/10/15 04:46:45;;;;;;;15.65;15.23;;;;;;;;;;4990194;28;20101;-46
2021/10/15 04:49:12;;;;;;;12.45;12.35;;;;;;;;;;4985320;28;20078;-48
2021/10/15 04:51:39;;;;;;;14.90;14.48;;;;;;;;;;4986904;28;20100;-49
2021/10/15 04:54:06;;;;;;;14.38;14.18;;;;;;;;;;4989674;28;20050;-46
2021/10/15 04:56:33;;;;;;;11.60;11.40;;;;;;;;;;4991517;28;20169;-47
2021/10/15 04:58:59;;;;;;;16.00;15.90;;;;;;;;;;4988918;28;20042;-45
2021/10/15 05:01:26;;;;;;;15.63;15.27;;;;;;;;;;4987313;28;20105;-47
2021/10/15 05:03:53;;;;;;;16.25;15.95;;;;;;;;;;4988858;28;20100;-47
2021/10/15 05:06:20;;;;;;;16.63;16.38;;;;;;;;;;4980262;28;20031;-48
2021/10/15 05:11:46;;;;;;;15.38;15.18;;;;;;;;;;4969044;28;20109;-50
2021/10/15 05:14:13;;;;;;;16.08;15.88;;;;;;;;;;4975021;28;20491;-47
2021/10/15 05:16:44;;;;;;;15.50;15.30;;;;;;;;;;4990252;28;20138;-46
2021/10/15 05:19:12;;;;;;;14.90;14.70;;;;;;;;;;4982601;28;20042;-46
2021/10/15 05:21:38;;;;;;;15.00;14.80;;;;;;;;;;4990150;28;20042;-46
2021/10/15 05:24:05;;;;;;;16.60;16.30;;;;;;;;;;4988869;28;20073;-44
2021/10/15 05:26:32;;;;;;;16.50;16.27;;;;;;;;;;4986539;28;20581;-50
2021/10/15 05:28:59;;;;;;;17.65;17.35;;;;;;;;;;4989644;28;20057;-52
2021/10/15 05:31:25;;;;;;;15.07;14.93;;;;;;;;;;4986687;28;20590;-54
2021/10/15 05:33:52;;;;;;;17.00;16.80;;;;;;;;;;4981613;28;20404;-51
2021/10/15 05:36:19;;;;;;;16.33;16.02;;;;;;;;;;4984960;28;20482;-53
2021/10/15 05:38:46;;;;;;;14.85;14.55;;;;;;;;;;4974686;28;20042;-54
2021/10/15 05:41:13;;;;;;;15.07;14.73;;;;;;;;;;4988430;28;20042;-54
2021/10/15 05:43:40;;;;;;;14.70;14.60;;;;;;;;;;4983921;28;20054;-51
2021/10/15 05:46:07;;;;;;;16.80;16.55;;;;;;;;;;4989546;28;20042;-52
2021/10/15 05:48:33;;;;;;;16.85;16.65;;;;;;;;;;4988539;28;20046;-53
2021/10/15 05:51:00;;;;;;;15.32;15.13;;;;;;;;;;4983875;28;20039;-53
2021/10/15 05:53:27;;;;;;;16.13;15.80;;;;;;;;;;4977933;28;20517;-53
2021/10/15 06:01:06;;;;;;;16.48;16.05;;;;;;;;;;4990532;28;20054;-53
2021/10/15 06:03:32;;;;;;;17.35;17.00;;;;;;;;;;4984292;28;20038;-52
2021/10/15 06:14:23;;;;;;;14.93;14.73;;;;;;;;;;4989397;28;20101;-53
2021/10/15 06:17:00;;;;;;;16.13;15.73;;;;;;;;;;4987967;28;20046;-53
2021/10/15 06:19:28;;;;;;;14.48;14.00;;;;;;;;;;4988376;28;20486;-54
2021/10/15 06:21:55;;;;;;;15.45;14.95;;;;;;;;;;4980091;28;20050;-54
2021/10/15 06:24:22;;;;;;;13.63;13.23;;;;;;;;;;4985490;28;20070;-53
2021/10/15 06:26:49;;;;;;;13.60;13.38;;;;;;;;;;4989718;28;20462;-54
2021/10/15 06:29:15;;;;;;;14.25;13.80;;;;;;;;;;4993029;28;20034;-53
2021/10/15 06:31:42;;;;;;;16.98;16.58;;;;;;;;;;4992279;28;20080;-54
2021/10/15 06:34:09;;;;;;;13.50;13.30;;;;;;;;;;4987773;28;20061;-52
2021/10/15 06:36:36;;;;;;;14.73;14.20;;;;;;;;;;4991762;28;20061;-54
2021/10/15 06:39:03;;;;;;;13.73;13.52;;;;;;;;;;4979362;28;20038;-54
2021/10/15 06:41:29;;;;;;;12.65;12.50;;;;;;;;;;4992845;28;20108;-53
2021/10/15 06:43:56;;;;;;;12.68;12.48;;;;;;;;;;4990809;28;20503;-54
2021/10/15 06:46:23;;;;;;;11.75;11.55;;;;;;;;;;4991824;28;20038;-53
2021/10/15 06:48:50;;;;;;;11.88;11.55;;;;;;;;;;4991468;28;20030;-54
2021/10/15 06:51:17;;;;;;;15.07;14.60;;;;;;;;;;4983205;28;20077;-55
2021/10/15 06:53:45;;;;;;;15.57;15.27;;;;;;;;;;4983490;28;20058;-54
2021/10/15 06:56:12;;;;;;;16.75;16.20;;;;;;;;;;4985685;28;20053;-55
2021/10/15 06:58:38;;;;;;;17.05;16.63;;;;;;;;;;4993264;28;20045;-52
2021/10/15 07:01:06;;;;;;;11.98;11.68;;;;;;;;;;4991339;28;20065;-54
2021/10/15 07:03:33;;;;;;;10.15;9.95;;;;;;;;;;4992105;28;20054;-54
2021/10/15 07:06:00;;;;;;;10.38;10.13;;;;;;;;;;4987432;28;20131;-54
2021/10/15 07:08:28;;;;;;;8.80;8.70;;;;;;;;;;4987777;28;20467;-54
2021/10/15 07:10:55;;;;;;;7.30;7.00;;;;;;;;;;4974782;28;20035;-53
2021/10/15 07:13:21;;;;;;;6.43;6.25;;;;;;;;;;4993594;28;20121;-54
2021/10/15 07:15:49;;;;;;;7.75;7.55;;;;;;;;;;4991382;28;20096;-54
2021/10/15 07:18:16;;;;;;;5.80;5.70;;;;;;;;;;4990303;28;20447;-53
2021/10/15 07:20:44;;;;;;;3.25;2.88;;;;;;;;;;4988924;28;20058;-54
2021/10/15 07:23:14;;;;;;;2.72;2.65;;;;;;;;;;4978496;28;20506;-54
2021/10/15 07:25:41;;;;;;;3.40;3.30;;;;;;;;;;4992880;28;20046;-54
2021/10/15 07:28:09;;;;;;;6.30;3.30;;;;;;;;;;4989265;28;20074;-54
2021/10/15 07:30:38;;;;;;;2.63;2.63;;;;;;;;;;4992454;28;20122;-54
2021/10/15 07:33:05;;;;;;;2.30;2.10;;;;;;;;;;4991466;28;20043;-53
2021/10/15 07:35:31;;;;;;;2.78;2.67;;;;;;;;;;4991522;28;20042;-54
2021/10/15 07:37:58;;;;;;;2.58;2.47;;;;;;;;;;4991650;28;20073;-52
2021/10/15 07:40:25;;;;;;;1.70;1.70;;;;;;;;;;4990984;28;20537;-54
2021/10/15 07:42:51;;;;;;;1.35;1.35;;;;;;;;;;4992305;28;20085;-54
2021/10/15 07:45:18;;;;;;;3.10;1.75;;;;;;;;;;4991401;28;20081;-53
2021/10/15 07:47:58;;;;;;;3.25;1.85;;;;;;;;;;4989541;28;20043;-54
2021/10/15 07:50:24;;;;;;;2.65;2.55;;;;;;;;;;4989110;28;20039;-53
2021/10/15 07:52:51;;;;;;;2.45;2.25;;;;;;;;;;4984893;28;20549;-53
2021/10/15 07:55:18;;;;;;;1.95;1.85;;;;;;;;;;4975894;28;20047;-52
2021/10/15 07:57:45;;;;;;;1.88;1.88;;;;;;;;;;4992526;28;20113;-54
2021/10/15 08:00:11;;;;;;;2.45;2.10;;;;;;;;;;4990191;28;20117;-52
2021/10/15 08:02:38;;;;;;;2.15;2.05;;;;;;;;;;4991851;28;20108;-55
2021/10/15 08:05:06;;;;;;;2.10;1.90;;;;;;;;;;4987763;28;20788;-54
2021/10/15 08:07:33;;;;;;;2.05;2.05;;;;;;;;;;4989489;28;20038;-52
2021/10/15 08:09:59;;;;;;;1.98;1.88;;;;;;;;;;4983738;28;20038;-54
2021/10/15 08:12:26;;;;;;;1.88;1.77;;;;;;;;;;4982266;28;20125;-54
2021/10/15 08:14:53;;;;;;;2.17;2.08;;;;;;;;;;4991373;28;20042;-54
2021/10/15 08:17:20;;;;;;;2.42;2.33;;;;;;;;;;4989729;28;20042;-53
2021/10/15 08:19:47;;;;;;;2.35;2.15;;;;;;;;;;4984877;28;20114;-54
2021/10/15 08:22:13;;;;;;;1.88;1.77;;;;;;;;;;4991235;28;20064;-54
2021/10/15 08:24:40;;;;;;;1.42;1.42;;;;;;;;;;4991561;28;20070;-54
2021/10/15 08:27:07;;;;;;;4.30;2.63;;;;;;;;;;4991154;28;20525;-52
2021/10/15 08:29:38;;;;;;;2.75;2.25;;;;;;;;;;4989152;28;20038;-54
2021/10/15 08:32:06;;;;;;;3.65;3.55;;;;;;;;;;4989713;28;20046;-55
2021/10/15 08:34:32;;;;;;;3.08;2.88;;;;;;;;;;4991173;28;20109;-54
2021/10/15 08:36:59;;;;;;;3.67;3.58;;;;;;;;;;4987898;28;20475;-54
2021/10/15 08:39:29;;;;;;;3.20;3.00;;;;;;;;;;4991009;28;20070;-54
2021/10/15 08:41:57;;;;;;;9.15;2.70;;;;;;;;;;4988299;28;20046;-53
2021/10/15 08:44:34;;;;;;;3.33;3.13;;;;;;;;;;4989737;28;20550;-53
2021/10/15 08:47:01;;;;;;;2.60;2.50;;;;;;;;;;4991044;28;20702;-54
2021/10/15 08:49:48;;;;;;;3.40;3.20;;;;;;;;;;4988130;28;20063;-54
2021/10/15 08:52:15;;;;;;;3.13;3.03;;;;;;;;;;4989455;28;20097;-55
2021/10/15 08:54:45;;;;;;;3.05;2.88;;;;;;;;;;4989715;28;20069;-55
2021/10/15 08:57:13;;;;;;;2.63;2.53;;;;;;;;;;4987918;28;20042;-53
2021/10/15 08:59:46;;;;;;;2.67;2.58;;;;;;;;;;4989873;28;20391;-55
2021/10/15 09:02:16;;;;;;;3.00;2.60;;;;;;;;;;4988981;28;20046;-53
2021/10/15 09:04:53;;;;;;;2.40;2.30;;;;;;;;;;4985581;28;20096;-54
2021/10/15 09:07:21;;;;;;;2.58;2.47;;;;;;;;;;4989726;28;20038;-55
2021/10/15 09:09:49;;;;;;;1.60;1.50;;;;;;;;;;4988368;28;20035;-54
2021/10/15 09:12:18;;;;;;;2.45;2.35;;;;;;;;;;4988116;28;20074;-55
2021/10/15 09:14:46;;;;;;;2.00;2.00;;;;;;;;;;4988945;28;20615;-53
2021/10/15 09:17:30;;;;;;;1.60;1.50;;;;;;;;;;4988222;28;20050;-54
2021/10/15 09:20:03;;;;;;;1.90;1.80;;;;;;;;;;4986267;28;20499;-54
2021/10/15 09:22:31;;;;;;;2.10;1.70;;;;;;;;;;4988591;28;20046;-54
2021/10/15 09:25:00;;;;;;;1.52;1.42;;;;;;;;;;4979086;28;20042;-53
2021/10/15 09:27:32;;;;;;;1.55;1.50;;;;;;;;;;4990107;28;20066;-53
2021/10/15 09:30:02;;;;;;;1.70;1.70;;;;;;;;;;4988346;28;20092;-54
2021/10/15 09:32:32;;;;;;;1.52;1.42;;;;;;;;;;5019345;28;20281;-55
2021/10/15 09:34:59;;;;;;;1.27;1.17;;;;;;;;;;4990036;28;20108;-54
2021/10/15 09:37:27;;;;;;;1.33;1.33;;;;;;;;;;4982717;28;20134;-54
2021/10/15 09:40:06;;;;;;;1.60;1.60;;;;;;;;;;4978722;28;20051;-55
2021/10/15 09:42:34;;;;;;;1.60;1.50;;;;;;;;;;4987561;28;20053;-54
2021/10/15 09:45:03;;;;;;;1.50;1.40;;;;;;;;;;4987281;28;20670;-54
2021/10/15 09:47:30;;;;;;;1.50;1.40;;;;;;;;;;4990252;28;20089;-54
2021/10/15 09:49:57;;;;;;;5.32;1.60;;;;;;;;;;4987648;28;20038;-54
2021/10/15 09:52:33;;;;;;;1.10;1.10;;;;;;;;;;4981776;28;20118;-55
2021/10/15 09:55:02;;;;;;;2.25;1.75;;;;;;;;;;4990675;28;20069;-55
2021/10/15 09:57:34;;;;;;;1.30;1.30;;;;;;;;;;4986975;28;20073;-56
2021/10/15 10:00:03;;;;;;;1.35;1.35;;;;;;;;;;4990019;28;20043;-54
2021/10/15 10:02:29;;;;;;;1.20;1.10;;;;;;;;;;4992905;28;20038;-55
2021/10/15 10:04:57;;;;;;;1.10;1.10;;;;;;;;;;4992545;28;20033;-55
2021/10/15 10:07:24;;;;;;;2.13;1.13;;;;;;;;;;4993766;28;20038;-55
2021/10/15 10:09:51;;;;;;;1.10;1.10;;;;;;;;;;4993332;28;20137;-55
2021/10/15 10:12:19;;;;;;;1.20;1.20;;;;;;;;;;4990306;28;20096;-55
2021/10/15 10:14:47;;;;;;;1.42;1.15;;;;;;;;;;4991740;28;20446;-55
2021/10/15 10:17:20;;;;;;;2.35;1.08;;;;;;;;;;4992445;28;20058;-55
2021/10/15 10:19:46;;;;;;;;;;;;;;;;;;4991981;28;20159;-55
2021/10/15 10:22:16;;;;;;;1.10;1.10;;;;;;;;;;4989734;28;20398;-55
2021/10/15 10:24:46;;;;;;;1.00;1.00;;;;;;;;;;4982047;28;20142;-55
2021/10/15 10:27:24;;;;;;;1.27;1.10;;;;;;;;;;4992851;28;20550;-55
2021/10/15 10:29:52;;;;;;;1.38;1.10;;;;;;;;;;4991502;28;20100;-55
2021/10/15 10:32:20;;;;;;;1.33;1.23;;;;;;;;;;4993029;28;20030;-55
2021/10/15 10:34:47;;;;;;;2.08;1.10;;;;;;;;;;4991620;28;20446;-55
2021/10/15 10:37:15;;;;;;;1.35;1.30;;;;;;;;;;4985563;28;20085;-55
2021/10/15 10:40:07;;;;;;;1.10;1.10;;;;;;;;;;4992286;28;20042;-54
2021/10/15 10:42:33;;;;;;;;;;;;;;;;;;4990443;28;20050;-55
2021/10/15 10:45:00;;;;;;;0.90;0.90;;;;;;;;;;4999224;28;19926;-55
2021/10/15 10:47:28;;;;;;;1.95;0.95;;;;;;;;;;4988408;28;20126;-55
2021/10/15 10:50:09;;;;;;;1.00;1.00;;;;;;;;;;4986024;28;20035;-55
2021/10/15 10:52:36;;;;;;;0.90;0.90;;;;;;;;;;4983376;28;20050;-55
2021/10/15 10:55:04;;;;;;;0.90;0.90;;;;;;;;;;4987104;28;20057;-55
2021/10/15 10:57:32;;;;;;;1.00;0.95;;;;;;;;;;4989908;28;20078;-54
2021/10/15 11:00:18;;;;;;;1.48;0.90;;;;;;;;;;4988125;28;20055;-55
2021/10/15 11:02:56;;;;;;;2.75;0.90;;;;;;;;;;4987153;28;20047;-55
2021/10/15 11:05:42;;;;;;;0.90;0.90;;;;;;;;;;4979468;28;20035;-55
2021/10/15 11:08:23;;;;;;;1.00;1.00;;;;;;;;;;4990965;28;20039;-55
2021/10/15 11:10:51;;;;;;;0.90;0.90;;;;;;;;;;4983790;28;20034;-55
2021/10/15 11:13:33;;;;;;;0.93;0.93;;;;;;;;;;4974773;28;20133;-55
2021/10/15 11:16:00;;;;;;;0.90;0.90;;;;;;;;;;4991727;28;20038;-56
2021/10/15 11:18:27;;;;;;;0.95;0.90;;;;;;;;;;4989599;28;20038;-55
2021/10/15 11:20:55;;;;;;;0.90;0.90;;;;;;;;;;4987754;28;20043;-55
2021/10/15 11:23:21;;;;;;;0.80;0.80;;;;;;;;;;4986350;28;20038;-55
2021/10/15 11:25:48;;;;;;;0.90;0.90;;;;;;;;;;4974624;28;20035;-55
2021/10/15 11:28:19;;;;;;;0.88;0.88;;;;;;;;;;4985522;28;20071;-54
2021/10/15 11:30:49;;;;;;;1.30;1.00;;;;;;;;;;4980328;28;20118;-54
2021/10/15 11:33:17;;;;;;;0.90;0.90;;;;;;;;;;4985572;28;20054;-55
2021/10/15 11:35:45;;;;;;;0.85;0.80;;;;;;;;;;4988698;28;20042;-55
2021/10/15 11:38:20;;;;;;;1.00;1.00;;;;;;;;;;4987584;28;20137;-54
2021/10/15 11:40:46;;;;;;;1.17;1.17;;;;;;;;;;4988360;28;20472;-54
2021/10/15 11:43:22;;;;;;;2.05;0.90;;;;;;;;;;4989410;28;20683;-53
2021/10/15 11:45:50;;;;;;;0.80;0.80;;;;;;;;;;4991957;28;20049;-53
2021/10/15 11:48:17;;;;;;;0.93;0.80;;;;;;;;;;4989856;28;20117;-52
2021/10/15 11:50:53;;;;;;;0.80;0.80;;;;;;;;;;4988332;28;20061;-54
2021/10/15 11:53:21;;;;;;;1.92;0.88;;;;;;;;;;4991996;28;20042;-53
2021/10/15 11:55:48;;;;;;;0.80;0.80;;;;;;;;;;4991996;28;20689;-53
2021/10/15 11:58:21;;;;;;;1.33;0.90;;;;;;;;;;4991022;28;20046;-54
2021/10/15 12:01:01;;;;;;;0.80;0.80;;;;;;;;;;4992353;28;20051;-52
2021/10/15 12:03:50;;;;;;;0.65;0.65;;;;;;;;;;4991051;28;20042;-54
2021/10/15 12:06:18;;;;;;;2.05;1.25;;;;;;;;;;4973668;28;20049;-54
2021/10/15 12:08:48;;;;;;;0.70;0.70;;;;;;;;;;4990447;28;20105;-53
2021/10/15 12:11:17;;;;;;;0.80;0.80;;;;;;;;;;4991355;28;20451;-54
2021/10/15 12:13:44;;;;;;;1.25;0.80;;;;;;;;;;4991450;28;20055;-55
2021/10/15 12:16:24;;;;;;;0.70;0.70;;;;;;;;;;4990333;28;20447;-53
2021/10/15 12:18:58;;;;;;;1.70;0.77;;;;;;;;;;4981683;28;20030;-53
2021/10/15 12:21:32;;;;;;;0.70;0.70;;;;;;;;;;4986964;28;20039;-53
2021/10/15 12:23:59;;;;;;;5.00;1.25;;;;;;;;;;4986130;28;20042;-53
2021/10/15 12:26:26;;;;;;;0.80;0.80;;;;;;;;;;4974369;28;20100;-54
2021/10/15 12:28:53;;;;;;;0.88;0.88;;;;;;;;;;4989812;28;20048;-54
2021/10/15 12:31:23;;;;;;;0.77;0.77;;;;;;;;;;4987774;28;20654;-54
2021/10/15 12:34:02;;;;;;;0.80;0.80;;;;;;;;;;4989056;28;20039;-54
2021/10/15 12:36:28;;;;;;;0.80;0.80;;;;;;;;;;4987705;28;20511;-53
2021/10/15 12:39:14;;;;;;;0.70;0.70;;;;;;;;;;4979383;28;20066;-51
2021/10/15 12:41:41;;;;;;;0.70;0.70;;;;;;;;;;4990648;28;20044;-53
2021/10/15 12:44:25;;;;;;;0.80;0.80;;;;;;;;;;4987135;28;20141;-54
2021/10/15 12:46:56;;;;;;;0.80;0.80;;;;;;;;;;4974793;28;20050;-55
2021/10/15 12:49:23;;;;;;;0.80;0.80;;;;;;;;;;4990361;28;20046;-55
2021/10/15 12:51:50;;;;;;;0.77;0.77;;;;;;;;;;4989087;28;20054;-54
2021/10/15 12:54:43;;;;;;;0.80;0.80;;;;;;;;;;4979057;28;20051;-54
2021/10/15 12:57:11;;;;;;;0.80;0.80;;;;;;;;;;4989513;28;20141;-55
2021/10/15 12:59:38;;;;;;;0.80;0.80;;;;;;;;;;4988910;28;20458;-53
2021/10/15 13:02:05;;;;;;;0.73;0.73;;;;;;;;;;4989657;28;20038;-54
2021/10/15 13:04:34;;;;;;;1.13;0.80;;;;;;;;;;4988664;28;20034;-55
2021/10/15 13:07:01;;;;;;;4.38;0.80;;;;;;;;;;4986339;28;20038;-54
2021/10/15 13:09:31;;;;;;;1.52;0.90;;;;;;;;;;4990470;28;20566;-54
2021/10/15 13:11:59;;;;;;;0.70;0.70;;;;;;;;;;4988722;28;20109;-53
2021/10/15 13:14:26;;;;;;;0.70;0.70;;;;;;;;;;4990643;28;20534;-53
2021/10/15 13:16:53;;;;;;;0.70;0.70;;;;;;;;;;4988103;28;20080;-54
2021/10/15 13:19:20;;;;;;;0.70;0.70;;;;;;;;;;4986329;28;20572;-54
2021/10/15 13:21:47;;;;;;;0.60;0.60;;;;;;;;;;4988160;28;20049;-54
2021/10/15 13:24:13;;;;;;;0.60;0.60;;;;;;;;;;4983339;28;20046;-55
2021/10/15 13:26:42;;;;;;;1.65;0.80;;;;;;;;;;4990568;28;20549;-53
2021/10/15 13:29:08;;;;;;;0.70;0.70;;;;;;;;;;4988050;28;20035;-53
2021/10/15 13:31:35;;;;;;;0.80;0.80;;;;;;;;;;4987889;28;20026;-53
2021/10/15 13:34:02;;;;;;;0.98;0.88;;;;;;;;;;4990453;28;20046;-54
2021/10/15 13:36:30;;;;;;;0.80;0.80;;;;;;;;;;4984023;28;20471;-54
2021/10/15 13:38:57;;;;;;;1.48;0.80;;;;;;;;;;4977630;28;20493;-54
2021/10/15 13:41:40;;;;;;;1.42;0.70;;;;;;;;;;4989953;28;20069;-55
2021/10/15 13:44:26;;;;;;;0.70;0.70;;;;;;;;;;4988108;28;20058;-53
2021/10/15 13:49:48;;;;;;;0.70;0.70;;;;;;;;;;4981817;28;20495;-53
2021/10/15 13:52:16;;;;;;;0.60;0.60;;;;;;;;;;4986489;28;20039;-54
2021/10/15 13:54:43;;;;;;;1.48;0.60;;;;;;;;;;4989583;28;20098;-55
2021/10/15 13:57:12;;;;;;;0.70;0.70;;;;;;;;;;4987890;28;20084;-54
2021/10/15 14:00:03;;;;;;;4.13;0.80;;;;;;;;;;4988698;28;20046;-54
2021/10/15 14:02:32;;;;;;;0.70;0.70;;;;;;;;;;4990215;28;20050;-53
2021/10/15 14:04:59;;;;;;;1.83;0.80;;;;;;;;;;4989081;28;20481;-54
2021/10/15 14:07:26;;;;;;;0.90;0.90;;;;;;;;;;4988618;28;20042;-53
2021/10/15 14:09:53;;;;;;;1.10;0.73;;;;;;;;;;4984781;28;20027;-54
2021/10/15 14:12:20;;;;;;;1.25;0.80;;;;;;;;;;4980910;28;20104;-52
2021/10/15 14:14:49;;;;;;;0.70;0.70;;;;;;;;;;4977222;28;20042;-54
2021/10/15 14:17:16;;;;;;;0.90;0.90;;;;;;;;;;4986625;28;20034;-54
2021/10/15 14:19:43;;;;;;;0.88;0.88;;;;;;;;;;4985904;28;20041;-52
2021/10/15 14:22:10;;;;;;;0.80;0.80;;;;;;;;;;4988725;28;20073;-54
2021/10/15 14:24:37;;;;;;;0.90;0.90;;;;;;;;;;4980955;28;20050;-53
2021/10/15 14:27:05;;;;;;;0.80;0.80;;;;;;;;;;4975183;28;20070;-55
2021/10/15 14:29:31;;;;;;;0.80;0.80;;;;;;;;;;4988061;28;20046;-53
2021/10/15 14:31:58;;;;;;;0.80;0.80;;;;;;;;;;4988751;28;20407;-54
2021/10/15 14:34:25;;;;;;;0.90;0.90;;;;;;;;;;4989717;28;20042;-54
2021/10/15 14:36:52;;;;;;;0.80;0.80;;;;;;;;;;4986922;28;20074;-54
2021/10/15 14:39:18;;;;;;;0.80;0.80;;;;;;;;;;4980368;28;20093;-53
2021/10/15 14:41:47;;;;;;;0.90;0.90;;;;;;;;;;4984542;28;20480;-54
2021/10/15 14:44:32;;;;;;;0.75;0.75;;;;;;;;;;4978568;28;20101;-54
2021/10/15 14:46:59;;;;;;;2.30;0.90;;;;;;;;;;4989575;28;20096;-52
2021/10/15 14:49:26;;;;;;;0.88;0.88;;;;;;;;;;4991757;28;20043;-52
2021/10/15 14:51:53;;;;;;;1.15;1.05;;;;;;;;;;4986852;28;20471;-53
2021/10/15 14:54:19;;;;;;;0.85;0.85;;;;;;;;;;4994010;28;20034;-52
2021/10/15 14:56:46;;;;;;;2.50;0.80;;;;;;;;;;4994496;28;20444;-54
2021/10/15 14:59:19;;;;;;;1.00;1.00;;;;;;;;;;4991846;28;20034;-54